Terminal Aerodrome Forecast
Issued by NWS

Home | Current Version | Previous Version | Text Only | Print | Product List | Glossary On
Versions: 1 2 3 4 5 6 7 8 9 10 11 12 13 14
000
FTUS45 KVEF 061732
TAFDAG
TAF
KDAG 061732Z 0618/0718 25015G24KT P6SM FEW060 SCT200
     FM062000 25015G25KT P6SM VCTS BKN060CB BKN100 BKN200
     FM070000 24012G18KT P6SM SCT100 SCT200=

USA.gov is the U.S. government's official web portal to all federal, state and local government web resources and services.